createdAt,value
2023-05-14T00:00:47.404Z,102364.19
2023-05-14T00:03:14.436Z,102349.38
2023-05-14T00:05:41.097Z,102356.34
2023-05-14T00:08:07.830Z,102356.34
2023-05-14T00:10:34.599Z,102352.22
2023-05-14T00:13:01.398Z,102351.44
2023-05-14T00:15:28.224Z,102348.94
2023-05-14T00:17:55.274Z,102339.06
2023-05-14T00:20:22.083Z,102329.69
2023-05-14T00:22:48.810Z,102329.34
2023-05-14T00:25:15.329Z,102329.34
2023-05-14T00:27:41.816Z,102315.09
2023-05-14T00:30:08.627Z,102325.31
2023-05-14T00:32:35.217Z,102327.53
2023-05-14T00:35:03.492Z,102318.75
2023-05-14T00:37:30.254Z,102318.25
2023-05-14T00:39:57.173Z,102313.88
2023-05-14T00:42:23.682Z,102315.66
2023-05-14T00:44:50.489Z,102307.34
2023-05-14T00:47:17.192Z,102308.44
2023-05-14T00:49:44.183Z,102308.53
2023-05-14T00:52:11.857Z,102308.00
2023-05-14T00:54:38.648Z,102300.88
2023-05-14T00:57:06.669Z,102305.34
2023-05-14T00:59:33.536Z,102305.44
2023-05-14T01:02:00.532Z,102303.47
2023-05-14T01:04:27.789Z,102305.34
2023-05-14T01:07:04.724Z,102305.25
2023-05-14T01:09:44.563Z,102305.25
2023-05-14T01:12:52.378Z,102306.91
2023-05-14T01:15:26.519Z,102298.13
2023-05-14T01:18:13.473Z,102298.22
2023-05-14T01:20:41.883Z,102304.56
2023-05-14T01:23:08.370Z,102302.78
2023-05-14T01:25:35.609Z,102285.16
2023-05-14T01:28:19.680Z,102289.72
2023-05-14T01:30:50.375Z,102287.59
2023-05-14T01:33:19.286Z,102288.38
2023-05-14T01:35:46.272Z,102285.63
2023-05-14T01:38:15.300Z,102290.00
2023-05-14T01:40:41.994Z,102282.97
2023-05-14T01:43:08.774Z,102286.66
2023-05-14T01:45:36.569Z,102278.75
2023-05-14T01:48:05.904Z,102276.19
2023-05-14T01:50:33.259Z,102271.06
2023-05-14T01:52:59.775Z,102270.72
2023-05-14T01:55:26.769Z,102264.88
2023-05-14T01:57:53.747Z,102270.28
2023-05-14T02:00:22.467Z,102275.69
2023-05-14T02:02:50.464Z,102274.84
2023-05-14T02:05:17.138Z,102277.59
2023-05-14T02:07:43.635Z,102277.59
2023-05-14T02:10:11.076Z,102278.69
2023-05-14T02:12:37.700Z,102275.16
2023-05-14T02:15:05.040Z,102276.03
2023-05-14T02:17:31.574Z,102270.78
2023-05-14T02:19:58.548Z,102264.53
2023-05-14T02:22:25.090Z,102271.81
2023-05-14T02:24:51.990Z,102262.97
2023-05-14T02:27:18.947Z,102258.91
2023-05-14T02:29:45.696Z,102256.97
2023-05-14T02:32:14.789Z,102253.50
2023-05-14T02:34:41.507Z,102246.56
2023-05-14T02:37:08.199Z,102250.25
2023-05-14T02:39:34.967Z,102250.84
2023-05-14T02:42:01.548Z,102251.63
2023-05-14T02:44:28.019Z,102244.34
2023-05-14T02:46:54.553Z,102242.88
2023-05-14T02:49:21.423Z,102249.13
2023-05-14T02:51:48.057Z,102248.03
2023-05-14T02:54:16.464Z,102252.31
2023-05-14T02:56:43.381Z,102242.19
2023-05-14T02:59:10.581Z,102244.75
2023-05-14T03:01:37.485Z,102238.41
2023-05-14T03:04:04.750Z,102239.53
2023-05-14T03:06:31.765Z,102241.50
2023-05-14T03:08:58.280Z,102245.25
2023-05-14T03:11:24.764Z,102239.84
2023-05-14T03:13:51.511Z,102233.84
2023-05-14T03:16:18.226Z,102235.56
2023-05-14T03:18:45.020Z,102227.56
2023-05-14T03:21:12.691Z,102242.84
2023-05-14T03:23:39.303Z,102233.22
2023-05-14T03:26:06.303Z,102236.13
2023-05-14T03:28:33.725Z,102238.88
2023-05-14T03:31:00.318Z,102236.22
2023-05-14T03:33:27.123Z,102226.50
2023-05-14T03:35:53.695Z,102211.03
2023-05-14T03:38:20.128Z,102225.72
2023-05-14T03:40:46.831Z,102222.44
2023-05-14T03:43:13.589Z,102228.00
2023-05-14T03:45:40.609Z,102224.66
2023-05-14T03:48:07.330Z,102227.84
2023-05-14T03:50:33.904Z,102225.19
2023-05-14T03:53:00.422Z,102226.66
2023-05-14T03:55:27.068Z,102229.28
2023-05-14T03:57:53.534Z,102214.09
2023-05-14T04:00:20.502Z,102222.06
2023-05-14T04:02:47.111Z,102215.50
2023-05-14T04:05:13.703Z,102219.09
2023-05-14T04:07:40.373Z,102225.72
2023-05-14T04:10:07.739Z,102228.63
2023-05-14T04:12:34.182Z,102224.94
2023-05-14T04:15:01.184Z,102222.06
2023-05-14T04:17:27.772Z,102225.81
2023-05-14T04:19:54.181Z,102223.22
2023-05-14T04:22:20.736Z,102227.22
2023-05-14T04:24:47.173Z,102220.03
2023-05-14T04:27:21.453Z,102221.84
2023-05-14T04:29:49.541Z,102223.47
2023-05-14T04:32:16.862Z,102218.84
2023-05-14T04:34:43.905Z,102222.38
2023-05-14T04:37:10.877Z,102225.66
2023-05-14T04:39:38.401Z,102216.88
2023-05-14T04:42:05.699Z,102229.16
2023-05-14T04:44:34.168Z,102226.44
2023-05-14T04:47:00.681Z,102218.44
2023-05-14T04:49:27.928Z,102220.84
2023-05-14T04:51:55.375Z,102218.03
2023-05-14T04:54:21.922Z,102210.91
2023-05-14T04:56:48.456Z,102224.38
2023-05-14T04:59:14.974Z,102223.09
2023-05-14T05:01:41.832Z,102220.03
2023-05-14T05:04:08.817Z,102210.34
2023-05-14T05:06:35.408Z,102215.31
2023-05-14T05:09:02.309Z,102214.03
2023-05-14T05:11:28.986Z,102217.56
2023-05-14T05:13:55.828Z,102226.31
2023-05-14T05:16:22.426Z,102215.59
2023-05-14T05:18:49.045Z,102219.19
2023-05-14T05:21:16.282Z,102219.97
2023-05-14T05:23:43.032Z,102225.91
2023-05-14T05:26:09.703Z,102232.34
2023-05-14T05:28:36.159Z,102232.25
2023-05-14T05:31:02.947Z,102231.63
2023-05-14T05:33:29.642Z,102223.81
2023-05-14T05:35:56.348Z,102225.25
2023-05-14T05:38:22.831Z,102232.22
2023-05-14T05:40:49.620Z,102242.94
2023-05-14T05:43:16.729Z,102249.91
2023-05-14T05:45:43.858Z,102259.78
2023-05-14T05:48:10.596Z,102244.94
2023-05-14T05:50:37.415Z,102244.44
2023-05-14T05:53:04.100Z,102241.66
2023-05-14T05:55:30.707Z,102239.00
2023-05-14T05:57:57.292Z,102242.50
2023-05-14T06:00:24.692Z,102246.97
2023-05-14T06:02:51.549Z,102244.16
2023-05-14T06:05:19.321Z,102242.94
2023-05-14T06:07:45.825Z,102239.13
2023-05-14T06:10:12.298Z,102232.34
2023-05-14T06:12:39.350Z,102227.78
2023-05-14T06:15:06.830Z,102227.25
2023-05-14T06:17:33.805Z,102224.25
2023-05-14T06:20:00.347Z,102230.84
2023-05-14T06:22:26.875Z,102219.06
2023-05-14T06:24:53.546Z,102228.13
2023-05-14T06:27:20.283Z,102225.94
2023-05-14T06:29:47.198Z,102232.06
2023-05-14T06:32:15.638Z,102220.38
2023-05-14T06:34:43.082Z,102227.31
2023-05-14T06:37:10.788Z,102232.53
2023-05-14T06:39:38.039Z,102235.44
2023-05-14T06:42:05.129Z,102234.66
2023-05-14T06:44:32.281Z,102238.44
2023-05-14T06:46:58.891Z,102235.59
2023-05-14T06:49:25.407Z,102233.00
2023-05-14T06:51:52.401Z,102239.34
2023-05-14T06:54:20.719Z,102240.50
2023-05-14T06:56:47.225Z,102233.84
2023-05-14T06:59:13.823Z,102230.41
2023-05-14T07:01:43.282Z,102235.63
2023-05-14T07:04:10.286Z,102240.88
2023-05-14T07:06:36.889Z,102239.94
2023-05-14T07:09:03.671Z,102243.16
2023-05-14T07:11:30.595Z,102240.97
2023-05-14T07:13:57.029Z,102236.97
2023-05-14T07:16:23.537Z,102245.66
2023-05-14T07:18:50.162Z,102247.94
2023-05-14T07:21:17.072Z,102241.34
2023-05-14T07:23:43.708Z,102247.94
2023-05-14T07:26:10.540Z,102235.81
2023-05-14T07:28:37.294Z,102248.22
2023-05-14T07:31:09.371Z,102240.69
2023-05-14T07:33:36.609Z,102239.44
2023-05-14T07:36:03.333Z,102237.06
2023-05-14T07:38:30.141Z,102246.31
2023-05-14T07:40:56.577Z,102236.41
2023-05-14T07:43:23.069Z,102231.16
2023-05-14T07:45:49.579Z,102240.31
2023-05-14T07:48:16.374Z,102231.16
2023-05-14T07:50:42.913Z,102231.16
2023-05-14T07:53:09.812Z,102233.41
2023-05-14T07:55:36.887Z,102227.94
2023-05-14T07:58:03.426Z,102216.59
2023-05-14T08:00:29.972Z,102220.88
2023-05-14T08:02:56.897Z,102217.59
2023-05-14T08:05:23.602Z,102218.59
2023-05-14T08:07:50.081Z,102216.63
2023-05-14T08:10:16.750Z,102216.41
2023-05-14T08:12:43.269Z,102218.53
2023-05-14T08:15:10.443Z,102214.56
2023-05-14T08:17:37.003Z,102218.94
2023-05-14T08:20:06.257Z,102215.25
2023-05-14T08:22:32.816Z,102213.81
2023-05-14T08:25:00.984Z,102206.34
2023-05-14T08:27:28.192Z,102209.38
2023-05-14T08:29:54.644Z,102215.19
2023-05-14T08:32:23.753Z,102211.88
2023-05-14T08:34:51.115Z,102227.25
2023-05-14T08:37:17.948Z,102220.72
2023-05-14T08:39:44.879Z,102206.47
2023-05-14T08:42:14.053Z,102214.69
2023-05-14T08:44:49.473Z,102212.94
2023-05-14T08:47:21.766Z,102203.97
2023-05-14T08:49:55.194Z,102201.41
2023-05-14T08:52:22.780Z,102208.00
2023-05-14T08:54:51.337Z,102199.47
2023-05-14T08:57:18.762Z,102205.88
2023-05-14T08:59:45.635Z,102193.84
2023-05-14T09:02:15.504Z,102196.72
2023-05-14T09:04:43.327Z,102192.03
2023-05-14T09:07:11.460Z,102192.41
2023-05-14T09:09:38.334Z,102193.66
2023-05-14T09:12:06.300Z,102198.63
2023-05-14T09:14:33.668Z,102193.38
2023-05-14T09:17:00.628Z,102190.88
2023-05-14T09:19:27.402Z,102192.69
2023-05-14T09:21:57.606Z,102201.13
2023-05-14T09:24:29.051Z,102192.13
2023-05-14T09:26:58.710Z,102184.56
2023-05-14T09:29:29.350Z,102174.56
2023-05-14T09:31:57.199Z,102185.19
2023-05-14T09:34:32.205Z,102187.84
2023-05-14T09:37:04.412Z,102179.22
2023-05-14T09:39:32.889Z,102180.53
2023-05-14T09:41:59.686Z,102171.91
2023-05-14T09:44:27.591Z,102176.94
2023-05-14T09:46:54.676Z,102162.06
2023-05-14T09:49:22.302Z,102169.34
2023-05-14T09:51:49.633Z,102166.66
2023-05-14T09:54:16.622Z,102166.03
2023-05-14T09:56:43.981Z,102159.75
2023-05-14T09:59:11.073Z,102166.91
2023-05-14T10:01:38.574Z,102158.63
2023-05-14T10:04:07.644Z,102155.63
2023-05-14T10:06:37.601Z,102162.16
2023-05-14T10:09:06.186Z,102152.16
2023-05-14T10:11:36.505Z,102144.03
2023-05-14T10:14:18.481Z,102156.59
2023-05-14T10:16:51.643Z,102156.53
2023-05-14T10:19:21.231Z,102155.75
2023-05-14T10:21:53.462Z,102155.44
2023-05-14T10:24:20.611Z,102156.31
2023-05-14T10:26:47.823Z,102149.16
2023-05-14T10:29:14.649Z,102146.41
2023-05-14T10:31:54.611Z,102140.09
2023-05-14T10:34:34.681Z,102144.03
2023-05-14T10:37:02.614Z,102144.53
2023-05-14T10:39:45.655Z,102137.59
2023-05-14T10:42:43.742Z,102138.69
2023-05-14T10:45:13.240Z,102144.13
2023-05-14T10:47:42.970Z,102135.56
2023-05-14T10:50:12.013Z,102134.78
2023-05-14T10:52:42.460Z,102131.84
2023-05-14T10:55:10.321Z,102131.38
2023-05-14T10:57:38.300Z,102134.72
2023-05-14T11:00:07.740Z,102124.38
2023-05-14T11:02:41.778Z,102132.25
2023-05-14T11:05:17.889Z,102125.94
2023-05-14T11:07:46.824Z,102119.09
2023-05-14T11:10:15.517Z,102114.88
2023-05-14T11:12:44.328Z,102123.78
2023-05-14T11:15:22.629Z,102116.13
2023-05-14T11:17:50.702Z,102120.66
2023-05-14T11:20:18.126Z,102116.63
2023-05-14T11:22:46.704Z,102104.88
2023-05-14T11:25:14.896Z,102113.94
2023-05-14T11:27:43.956Z,102111.50
2023-05-14T11:30:18.284Z,102104.06
2023-05-14T11:32:50.174Z,102100.28
2023-05-14T11:35:17.858Z,102095.91
2023-05-14T11:37:51.587Z,102092.00
2023-05-14T11:40:18.931Z,102094.03
2023-05-14T11:42:45.882Z,102086.47
2023-05-14T11:45:14.147Z,102092.94
2023-05-14T11:47:42.577Z,102095.38
2023-05-14T11:50:09.975Z,102076.59
2023-05-14T11:52:40.998Z,102082.44
2023-05-14T11:55:13.961Z,102085.41
2023-05-14T11:57:41.367Z,102082.22
2023-05-14T12:00:21.949Z,102078.31
2023-05-14T12:02:51.872Z,102081.50
2023-05-14T12:05:18.948Z,102075.13
2023-05-14T12:07:46.210Z,102054.13
2023-05-14T12:10:13.763Z,102071.44
2023-05-14T12:12:45.589Z,102062.78
2023-05-14T12:15:13.537Z,102064.84
2023-05-14T12:17:40.662Z,102070.34
2023-05-14T12:20:11.948Z,102057.22
2023-05-14T12:22:38.754Z,102061.44
2023-05-14T12:25:12.306Z,102063.88
2023-05-14T12:27:39.162Z,102059.66
2023-05-14T12:30:20.643Z,102064.53
2023-05-14T12:32:51.968Z,102055.91
2023-05-14T12:35:18.802Z,102057.22
2023-05-14T12:37:45.449Z,102060.31
2023-05-14T12:40:12.182Z,102039.97
2023-05-14T12:42:38.646Z,102042.63
2023-05-14T12:45:08.120Z,102045.91
2023-05-14T12:47:35.072Z,102038.47
2023-05-14T12:50:02.385Z,102037.72
2023-05-14T12:52:37.678Z,102040.94
2023-05-14T12:55:07.461Z,102032.47
2023-05-14T12:57:35.398Z,102040.31
2023-05-14T13:00:06.576Z,102035.13
2023-05-14T13:02:34.080Z,102029.94
2023-05-14T13:05:10.441Z,102036.47
2023-05-14T13:07:37.648Z,102027.22
2023-05-14T13:10:05.855Z,102031.47
2023-05-14T13:12:33.012Z,102023.06
2023-05-14T13:14:59.757Z,102028.56
2023-05-14T13:17:26.729Z,102024.09
2023-05-14T13:19:53.845Z,102023.19
2023-05-14T13:22:20.772Z,102020.69
2023-05-14T13:24:47.998Z,102018.25
2023-05-14T13:27:17.644Z,102020.50
2023-05-14T13:29:44.250Z,102018.94
2023-05-14T13:32:10.946Z,102014.81
2023-05-14T13:34:37.580Z,102013.75
2023-05-14T13:37:04.354Z,102014.69
2023-05-14T13:39:31.456Z,102005.56
2023-05-14T13:41:58.262Z,102006.28
2023-05-14T13:44:25.565Z,102004.00
2023-05-14T13:46:52.793Z,102006.75
2023-05-14T13:49:20.269Z,102001.63
2023-05-14T13:51:46.789Z,101998.09
2023-05-14T13:54:13.879Z,101994.41
2023-05-14T13:56:46.578Z,102000.06
2023-05-14T13:59:13.485Z,102000.50
2023-05-14T14:01:40.350Z,102003.13
2023-05-14T14:04:08.038Z,101996.88
2023-05-14T14:06:34.693Z,101995.41
2023-05-14T14:09:02.131Z,101978.00
2023-05-14T14:11:28.892Z,101985.59
2023-05-14T14:13:55.779Z,101984.63
2023-05-14T14:16:22.621Z,101978.91
2023-05-14T14:18:49.510Z,101982.06
2023-05-14T14:21:19.099Z,101978.84
2023-05-14T14:23:49.123Z,101970.38
2023-05-14T14:26:15.982Z,101975.13
2023-05-14T14:28:42.668Z,101969.47
2023-05-14T14:31:09.294Z,101964.78
2023-05-14T14:33:35.980Z,101969.59
2023-05-14T14:36:03.154Z,101968.63
2023-05-14T14:38:29.829Z,101966.41
2023-05-14T14:40:57.533Z,101951.53
2023-05-14T14:43:24.660Z,101962.13
2023-05-14T14:45:53.309Z,101961.50
2023-05-14T14:48:24.468Z,101952.16
2023-05-14T14:50:52.855Z,101952.16
2023-05-14T14:53:23.493Z,101952.03
2023-05-14T14:55:51.245Z,101954.91
2023-05-14T14:58:19.609Z,101955.53
2023-05-14T15:00:47.454Z,101949.78
2023-05-14T15:03:15.768Z,101943.25
2023-05-14T15:05:42.951Z,101953.47
2023-05-14T15:08:10.035Z,101933.78
2023-05-14T15:10:38.223Z,101950.69
2023-05-14T15:13:07.083Z,101946.53
2023-05-14T15:15:35.724Z,101942.75
2023-05-14T15:18:03.971Z,101943.81
2023-05-14T15:20:31.359Z,101940.31
2023-05-14T15:22:59.253Z,101937.88
2023-05-14T15:25:27.092Z,101937.78
2023-05-14T15:27:54.162Z,101928.81
2023-05-14T15:30:21.964Z,101930.47
2023-05-14T15:32:48.811Z,101925.81
2023-05-14T15:35:15.909Z,101934.09
2023-05-14T15:37:46.115Z,101927.28
2023-05-14T15:40:13.268Z,101923.88
2023-05-14T15:42:42.441Z,101914.38
2023-05-14T15:45:13.844Z,101927.25
2023-05-14T15:47:42.136Z,101917.44
2023-05-14T15:50:09.576Z,101930.53
2023-05-14T15:52:36.612Z,101922.47
2023-05-14T15:55:06.456Z,101920.50
2023-05-14T15:57:33.731Z,101918.88
2023-05-14T16:00:00.503Z,101915.69
2023-05-14T16:02:30.461Z,101917.31
2023-05-14T16:04:57.391Z,101917.19
2023-05-14T16:07:24.174Z,101921.56
2023-05-14T16:09:51.273Z,101932.41
2023-05-14T16:12:19.034Z,101926.28
2023-05-14T16:14:46.897Z,101931.69
2023-05-14T16:17:14.042Z,101925.88
2023-05-14T16:19:40.734Z,101928.69
2023-05-14T16:22:07.565Z,101931.31
2023-05-14T16:24:34.198Z,101932.16
2023-05-14T16:27:00.936Z,101942.66
2023-05-14T16:29:27.947Z,101935.94
2023-05-14T16:31:54.977Z,101936.81
2023-05-14T16:34:22.065Z,101940.34
2023-05-14T16:36:49.848Z,101941.47
2023-05-14T16:39:16.634Z,101946.09
2023-05-14T16:41:43.354Z,101947.03
2023-05-14T16:44:09.948Z,101954.31
2023-05-14T16:46:36.773Z,101959.97
2023-05-14T16:49:03.507Z,101957.47
2023-05-14T16:51:30.112Z,101958.03
2023-05-14T16:53:56.797Z,101954.16
2023-05-14T16:56:23.416Z,101962.75
2023-05-14T16:58:50.393Z,101959.59
2023-05-14T17:01:17.452Z,101965.03
2023-05-14T17:03:46.370Z,101952.31
2023-05-14T17:06:12.858Z,101973.34
2023-05-14T17:08:40.794Z,101968.63
2023-05-14T17:11:07.433Z,101963.09
2023-05-14T17:13:34.161Z,101964.66
2023-05-14T17:16:02.048Z,101966.25
2023-05-14T17:18:28.920Z,101967.06
2023-05-14T17:20:55.641Z,101963.47
2023-05-14T17:23:22.414Z,101963.47
2023-05-14T17:25:49.162Z,101965.13
2023-05-14T17:28:15.812Z,101962.97
2023-05-14T17:30:42.737Z,101967.38
2023-05-14T17:33:09.917Z,101963.22
2023-05-14T17:35:37.400Z,101964.91
2023-05-14T17:38:04.613Z,101961.25
2023-05-14T17:40:31.204Z,101962.38
2023-05-14T17:42:58.246Z,101953.41
2023-05-14T17:45:25.353Z,101958.31
2023-05-14T17:47:53.427Z,101958.97
2023-05-14T17:50:20.800Z,101957.47
2023-05-14T17:52:48.413Z,101963.44
2023-05-14T17:55:15.291Z,101971.84
2023-05-14T17:57:42.289Z,101961.78
2023-05-14T18:00:09.299Z,101971.94
2023-05-14T18:02:36.176Z,101972.78
2023-05-14T18:05:03.109Z,101973.41
2023-05-14T18:07:30.906Z,101976.94
2023-05-14T18:09:57.748Z,101970.31
2023-05-14T18:12:27.532Z,101975.66
2023-05-14T18:14:54.479Z,101972.25
2023-05-14T18:17:22.005Z,101971.59
2023-05-14T18:19:48.962Z,101977.03
2023-05-14T18:22:16.079Z,101975.41
2023-05-14T18:24:44.354Z,101981.44
2023-05-14T18:27:11.222Z,101981.84
2023-05-14T18:29:38.299Z,101977.88
2023-05-14T18:32:05.823Z,101979.66
2023-05-14T18:34:32.585Z,101978.59
2023-05-14T18:36:59.404Z,101981.38
2023-05-14T18:39:27.097Z,101985.09
2023-05-14T18:41:53.978Z,101981.13
2023-05-14T18:44:20.785Z,101973.88
2023-05-14T18:46:47.723Z,101982.06
2023-05-14T18:49:14.257Z,101983.69
2023-05-14T18:51:42.178Z,101983.13
2023-05-14T18:54:08.618Z,101978.38
2023-05-14T18:56:36.835Z,101996.28
2023-05-14T18:59:04.760Z,101985.25
2023-05-14T19:01:31.507Z,101987.25
2023-05-14T19:03:58.435Z,101988.06
2023-05-14T19:06:25.220Z,102000.38
2023-05-14T19:08:52.062Z,101987.63
2023-05-14T19:11:18.671Z,101988.56
2023-05-14T19:13:46.746Z,101988.38
2023-05-14T19:16:13.446Z,101993.59
2023-05-14T19:18:40.131Z,101993.91
2023-05-14T19:21:06.735Z,102003.53
2023-05-14T19:23:33.277Z,101990.19
2023-05-14T19:25:59.997Z,102000.88
2023-05-14T19:28:26.574Z,102003.53
2023-05-14T19:30:53.855Z,101989.94
2023-05-14T19:33:20.500Z,102004.03
2023-05-14T19:35:47.633Z,101991.38
2023-05-14T19:38:15.114Z,101986.13
2023-05-14T19:40:42.970Z,101997.25
2023-05-14T19:43:13.265Z,101998.38
2023-05-14T19:45:40.226Z,101993.03
2023-05-14T19:48:06.904Z,101990.47
2023-05-14T19:50:34.475Z,101992.19
2023-05-14T19:53:01.268Z,101988.66
2023-05-14T19:55:27.877Z,101994.84
2023-05-14T19:57:54.505Z,101995.72
2023-05-14T20:00:23.065Z,101986.66
2023-05-14T20:03:20.447Z,101986.56
2023-05-14T20:05:49.399Z,101980.00
2023-05-14T20:08:16.844Z,101983.50
2023-05-14T20:10:44.797Z,101978.19
2023-05-14T20:13:11.563Z,101975.13
2023-05-14T20:15:39.806Z,101975.44
2023-05-14T20:18:06.852Z,101976.66
2023-05-14T20:20:34.077Z,101979.22
2023-05-14T20:23:00.876Z,101972.38
2023-05-14T20:25:28.621Z,101966.66
2023-05-14T20:27:55.655Z,101966.75
2023-05-14T20:30:23.022Z,101969.69
2023-05-14T20:32:49.880Z,101969.19
2023-05-14T20:35:16.610Z,101964.56
2023-05-14T20:37:46.078Z,101967.88
2023-05-14T20:40:12.787Z,101962.56
2023-05-14T20:42:39.773Z,101964.03
2023-05-14T20:45:07.117Z,101971.34
2023-05-14T20:47:34.295Z,101972.09
2023-05-14T20:50:01.217Z,101969.81
2023-05-14T20:52:28.115Z,101971.03
2023-05-14T20:54:54.801Z,101963.34
2023-05-14T20:57:22.976Z,101969.03
2023-05-14T20:59:49.396Z,101968.47
2023-05-14T21:02:16.008Z,101964.22
2023-05-14T21:04:42.902Z,101966.38
2023-05-14T21:07:09.665Z,101954.97
2023-05-14T21:09:36.578Z,101953.75
2023-05-14T21:12:03.232Z,101949.56
2023-05-14T21:14:29.739Z,101946.38
2023-05-14T21:16:56.259Z,101949.31
2023-05-14T21:19:23.295Z,101956.69
2023-05-14T21:21:49.841Z,101954.03
2023-05-14T21:24:19.256Z,101966.56
2023-05-14T21:26:46.305Z,101960.97
2023-05-14T21:29:12.792Z,101962.88
2023-05-14T21:31:39.437Z,101964.47
2023-05-14T21:34:06.043Z,101954.50
2023-05-14T21:36:32.535Z,101943.09
2023-05-14T21:38:59.053Z,101950.59
2023-05-14T21:41:25.618Z,101948.03
2023-05-14T21:43:52.131Z,101952.53
2023-05-14T21:46:21.613Z,101949.97
2023-05-14T21:48:48.278Z,101945.69
2023-05-14T21:51:14.911Z,101940.38
2023-05-14T21:53:41.376Z,101937.34
2023-05-14T21:56:08.232Z,101943.72
2023-05-14T21:58:35.980Z,101948.94
2023-05-14T22:01:02.727Z,101953.22
2023-05-14T22:03:29.315Z,101955.78
2023-05-14T22:05:56.360Z,101940.34
2023-05-14T22:08:23.674Z,101942.59
2023-05-14T22:10:51.679Z,101948.16
2023-05-14T22:13:18.429Z,101940.72
2023-05-14T22:15:44.995Z,101927.97
2023-05-14T22:18:12.970Z,101928.72
2023-05-14T22:20:41.495Z,101923.50
2023-05-14T22:23:08.248Z,101925.81
2023-05-14T22:25:34.851Z,101914.56
2023-05-14T22:28:01.478Z,101919.13
2023-05-14T22:30:28.497Z,101915.00
2023-05-14T22:32:54.929Z,101922.03
2023-05-14T22:35:21.504Z,101911.69
2023-05-14T22:37:48.291Z,101906.78
2023-05-14T22:40:14.844Z,101898.78
2023-05-14T22:42:41.677Z,101903.00
2023-05-14T22:45:08.832Z,101901.78
2023-05-14T22:47:35.414Z,101869.44
2023-05-14T22:50:02.117Z,101897.44
2023-05-14T22:52:28.776Z,101880.34
2023-05-14T22:54:55.284Z,101877.78
2023-05-14T22:57:21.874Z,101879.81
2023-05-14T22:59:48.303Z,101875.31
2023-05-14T23:02:15.207Z,101883.47
2023-05-14T23:04:41.901Z,101891.28
2023-05-14T23:07:08.452Z,101891.19
2023-05-14T23:09:36.360Z,101896.50
2023-05-14T23:12:03.282Z,101885.63
2023-05-14T23:14:29.807Z,101887.25
2023-05-14T23:16:57.576Z,101873.00
2023-05-14T23:19:24.118Z,101878.41
2023-05-14T23:21:51.011Z,101868.72
2023-05-14T23:24:17.761Z,101865.84
2023-05-14T23:26:44.545Z,101866.88
2023-05-14T23:29:11.100Z,101859.63
2023-05-14T23:31:38.649Z,101865.25
2023-05-14T23:34:05.269Z,101870.34
2023-05-14T23:36:32.859Z,101867.91
2023-05-14T23:38:59.767Z,101858.22
2023-05-14T23:41:26.723Z,101862.00
2023-05-14T23:43:55.302Z,101857.56
2023-05-14T23:46:22.384Z,101861.59
2023-05-14T23:48:49.064Z,101859.28
2023-05-14T23:51:15.579Z,101860.16
2023-05-14T23:53:42.356Z,101849.78
2023-05-14T23:56:09.014Z,101856.22
2023-05-14T23:58:35.624Z,101852.69
